sensor_id;sensor_type;location;lat;lon;timestamp;temperature;humidity
51801;DHT22;37855;53.204;6.568;2023-03-31T00:01:36;10.50;75.30
51801;DHT22;37855;53.204;6.568;2023-03-31T00:04:08;10.50;75.50
51801;DHT22;37855;53.204;6.568;2023-03-31T00:06:38;10.50;75.60
51801;DHT22;37855;53.204;6.568;2023-03-31T00:09:15;10.40;75.60
51801;DHT22;37855;53.204;6.568;2023-03-31T00:11:44;10.40;75.60
51801;DHT22;37855;53.204;6.568;2023-03-31T00:14:11;10.50;75.80
51801;DHT22;37855;53.204;6.568;2023-03-31T00:16:38;10.50;75.70
51801;DHT22;37855;53.204;6.568;2023-03-31T00:19:05;10.50;75.80
51801;DHT22;37855;53.204;6.568;2023-03-31T00:21:34;10.50;75.80
51801;DHT22;37855;53.204;6.568;2023-03-31T00:24:09;10.50;75.90
51801;DHT22;37855;53.204;6.568;2023-03-31T00:26:35;10.50;75.90
51801;DHT22;37855;53.204;6.568;2023-03-31T00:29:05;10.50;75.90
51801;DHT22;37855;53.204;6.568;2023-03-31T00:31:32;10.50;75.90
51801;DHT22;37855;53.204;6.568;2023-03-31T00:33:57;10.50;75.80
51801;DHT22;37855;53.204;6.568;2023-03-31T00:36:23;10.40;75.90
51801;DHT22;37855;53.204;6.568;2023-03-31T00:38:54;10.40;75.90
51801;DHT22;37855;53.204;6.568;2023-03-31T00:41:20;10.40;76.00
51801;DHT22;37855;53.204;6.568;2023-03-31T00:49:03;10.40;76.10
51801;DHT22;37855;53.204;6.568;2023-03-31T00:51:31;10.30;76.10
51801;DHT22;37855;53.204;6.568;2023-03-31T00:54:03;10.30;76.10
51801;DHT22;37855;53.204;6.568;2023-03-31T00:56:50;10.30;76.10
51801;DHT22;37855;53.204;6.568;2023-03-31T00:59:22;10.30;76.20
51801;DHT22;37855;53.204;6.568;2023-03-31T01:01:49;10.30;76.10
51801;DHT22;37855;53.204;6.568;2023-03-31T01:04:38;10.30;76.20
51801;DHT22;37855;53.204;6.568;2023-03-31T01:07:27;10.30;76.10
51801;DHT22;37855;53.204;6.568;2023-03-31T01:09:57;10.30;76.20
51801;DHT22;37855;53.204;6.568;2023-03-31T01:12:33;10.20;76.20
51801;DHT22;37855;53.204;6.568;2023-03-31T01:15:03;10.20;76.20
51801;DHT22;37855;53.204;6.568;2023-03-31T01:17:29;10.20;76.10
51801;DHT22;37855;53.204;6.568;2023-03-31T01:29:18;10.20;76.40
51801;DHT22;37855;53.204;6.568;2023-03-31T01:37:51;10.10;76.40
51801;DHT22;37855;53.204;6.568;2023-03-31T01:40:43;10.10;76.40
51801;DHT22;37855;53.204;6.568;2023-03-31T01:43:37;10.10;76.40
51801;DHT22;37855;53.204;6.568;2023-03-31T01:46:26;10.10;76.40
51801;DHT22;37855;53.204;6.568;2023-03-31T01:54:37;10.00;76.50
51801;DHT22;37855;53.204;6.568;2023-03-31T02:00:00;10.00;76.50
51801;DHT22;37855;53.204;6.568;2023-03-31T02:03:13;10.00;76.50
51801;DHT22;37855;53.204;6.568;2023-03-31T02:05:34;9.90;76.60
51801;DHT22;37855;53.204;6.568;2023-03-31T02:08:07;9.90;76.70
51801;DHT22;37855;53.204;6.568;2023-03-31T02:10:36;9.90;76.70
51801;DHT22;37855;53.204;6.568;2023-03-31T02:13:11;9.90;76.70
51801;DHT22;37855;53.204;6.568;2023-03-31T02:15:46;9.90;76.70
51801;DHT22;37855;53.204;6.568;2023-03-31T02:18:17;9.90;76.70
51801;DHT22;37855;53.204;6.568;2023-03-31T02:20:47;9.90;76.60
51801;DHT22;37855;53.204;6.568;2023-03-31T02:23:21;9.90;76.80
51801;DHT22;37855;53.204;6.568;2023-03-31T02:25:56;9.90;76.70
51801;DHT22;37855;53.204;6.568;2023-03-31T02:28:34;9.80;76.70
51801;DHT22;37855;53.204;6.568;2023-03-31T02:33:53;9.90;76.70
51801;DHT22;37855;53.204;6.568;2023-03-31T02:36:29;9.80;76.70
51801;DHT22;37855;53.204;6.568;2023-03-31T02:39:27;9.80;76.80
51801;DHT22;37855;53.204;6.568;2023-03-31T02:42:00;9.80;76.90
51801;DHT22;37855;53.204;6.568;2023-03-31T02:44:40;9.80;76.80
51801;DHT22;37855;53.204;6.568;2023-03-31T02:47:14;9.80;76.90
51801;DHT22;37855;53.204;6.568;2023-03-31T02:49:52;9.80;76.80
51801;DHT22;37855;53.204;6.568;2023-03-31T02:55:14;9.80;77.00
51801;DHT22;37855;53.204;6.568;2023-03-31T02:58:00;9.80;76.90
51801;DHT22;37855;53.204;6.568;2023-03-31T03:01:10;9.90;76.80
51801;DHT22;37855;53.204;6.568;2023-03-31T03:06:53;9.90;76.80
51801;DHT22;37855;53.204;6.568;2023-03-31T03:12:27;9.90;76.70
51801;DHT22;37855;53.204;6.568;2023-03-31T03:15:11;9.90;76.70
51801;DHT22;37855;53.204;6.568;2023-03-31T03:17:47;9.90;76.80
51801;DHT22;37855;53.204;6.568;2023-03-31T03:20:20;10.00;76.70
51801;DHT22;37855;53.204;6.568;2023-03-31T03:22:49;10.00;76.70
51801;DHT22;37855;53.204;6.568;2023-03-31T03:25:16;10.00;76.70
51801;DHT22;37855;53.204;6.568;2023-03-31T03:27:42;9.90;76.70
51801;DHT22;37855;53.204;6.568;2023-03-31T03:30:10;10.00;76.60
51801;DHT22;37855;53.204;6.568;2023-03-31T03:32:36;9.90;76.60
51801;DHT22;37855;53.204;6.568;2023-03-31T03:35:23;10.00;76.70
51801;DHT22;37855;53.204;6.568;2023-03-31T03:37:49;10.00;76.70
51801;DHT22;37855;53.204;6.568;2023-03-31T03:40:15;10.00;76.70
51801;DHT22;37855;53.204;6.568;2023-03-31T03:42:41;10.00;76.60
51801;DHT22;37855;53.204;6.568;2023-03-31T03:45:07;10.00;76.60
51801;DHT22;37855;53.204;6.568;2023-03-31T03:47:35;10.00;76.60
51801;DHT22;37855;53.204;6.568;2023-03-31T03:50:01;10.00;76.60
51801;DHT22;37855;53.204;6.568;2023-03-31T03:52:28;10.00;76.60
51801;DHT22;37855;53.204;6.568;2023-03-31T03:54:54;10.00;76.60
51801;DHT22;37855;53.204;6.568;2023-03-31T03:57:23;10.00;76.70
51801;DHT22;37855;53.204;6.568;2023-03-31T04:00:01;10.00;76.70
51801;DHT22;37855;53.204;6.568;2023-03-31T04:02:32;10.00;76.70
51801;DHT22;37855;53.204;6.568;2023-03-31T04:04:58;10.00;76.70
51801;DHT22;37855;53.204;6.568;2023-03-31T04:07:26;10.00;77.00
51801;DHT22;37855;53.204;6.568;2023-03-31T04:09:52;10.00;76.90
51801;DHT22;37855;53.204;6.568;2023-03-31T04:12:18;10.00;76.90
51801;DHT22;37855;53.204;6.568;2023-03-31T04:14:44;10.00;77.20
51801;DHT22;37855;53.204;6.568;2023-03-31T04:17:26;10.00;77.20
51801;DHT22;37855;53.204;6.568;2023-03-31T04:20:04;10.00;77.20
51801;DHT22;37855;53.204;6.568;2023-03-31T04:22:32;10.00;77.20
51801;DHT22;37855;53.204;6.568;2023-03-31T04:25:09;10.10;77.30
51801;DHT22;37855;53.204;6.568;2023-03-31T04:27:40;10.10;77.50
51801;DHT22;37855;53.204;6.568;2023-03-31T04:30:13;10.10;77.40
51801;DHT22;37855;53.204;6.568;2023-03-31T04:32:50;10.10;77.60
51801;DHT22;37855;53.204;6.568;2023-03-31T04:35:21;10.10;77.80
51801;DHT22;37855;53.204;6.568;2023-03-31T04:37:48;10.10;78.00
51801;DHT22;37855;53.204;6.568;2023-03-31T04:40:15;10.10;77.90
51801;DHT22;37855;53.204;6.568;2023-03-31T04:42:44;10.10;78.20
51801;DHT22;37855;53.204;6.568;2023-03-31T04:45:12;10.10;78.10
51801;DHT22;37855;53.204;6.568;2023-03-31T04:47:41;10.10;78.20
51801;DHT22;37855;53.204;6.568;2023-03-31T04:50:12;10.10;78.40
51801;DHT22;37855;53.204;6.568;2023-03-31T04:52:38;10.10;78.40
51801;DHT22;37855;53.204;6.568;2023-03-31T04:55:08;10.10;78.50
51801;DHT22;37855;53.204;6.568;2023-03-31T04:57:35;10.20;78.70
51801;DHT22;37855;53.204;6.568;2023-03-31T05:00:02;10.10;78.80
51801;DHT22;37855;53.204;6.568;2023-03-31T05:02:32;10.10;78.80
51801;DHT22;37855;53.204;6.568;2023-03-31T05:04:58;10.10;78.90
51801;DHT22;37855;53.204;6.568;2023-03-31T05:07:37;10.10;79.20
51801;DHT22;37855;53.204;6.568;2023-03-31T05:10:12;10.10;79.70
51801;DHT22;37855;53.204;6.568;2023-03-31T05:12:48;10.10;79.30
51801;DHT22;37855;53.204;6.568;2023-03-31T05:15:23;10.10;79.50
51801;DHT22;37855;53.204;6.568;2023-03-31T05:17:49;10.10;79.30
51801;DHT22;37855;53.204;6.568;2023-03-31T05:20:15;10.10;79.50
51801;DHT22;37855;53.204;6.568;2023-03-31T05:22:41;10.10;79.70
51801;DHT22;37855;53.204;6.568;2023-03-31T05:25:08;10.10;79.50
51801;DHT22;37855;53.204;6.568;2023-03-31T05:27:34;10.10;79.50
51801;DHT22;37855;53.204;6.568;2023-03-31T05:30:01;10.10;79.50
51801;DHT22;37855;53.204;6.568;2023-03-31T05:32:27;10.10;79.60
51801;DHT22;37855;53.204;6.568;2023-03-31T05:34:53;10.10;79.60
51801;DHT22;37855;53.204;6.568;2023-03-31T05:37:23;10.10;79.60
51801;DHT22;37855;53.204;6.568;2023-03-31T05:39:49;10.20;79.70
51801;DHT22;37855;53.204;6.568;2023-03-31T05:42:15;10.20;79.70
51801;DHT22;37855;53.204;6.568;2023-03-31T05:44:52;10.20;79.70
51801;DHT22;37855;53.204;6.568;2023-03-31T05:47:20;10.20;79.70
51801;DHT22;37855;53.204;6.568;2023-03-31T05:49:59;10.20;79.70
51801;DHT22;37855;53.204;6.568;2023-03-31T05:52:32;10.20;79.80
51801;DHT22;37855;53.204;6.568;2023-03-31T05:54:58;10.20;79.80
51801;DHT22;37855;53.204;6.568;2023-03-31T05:57:24;10.20;79.80
51801;DHT22;37855;53.204;6.568;2023-03-31T05:59:50;10.30;79.80
51801;DHT22;37855;53.204;6.568;2023-03-31T06:02:16;10.30;79.80
51801;DHT22;37855;53.204;6.568;2023-03-31T06:04:41;10.30;79.80
51801;DHT22;37855;53.204;6.568;2023-03-31T06:07:08;10.30;79.80
51801;DHT22;37855;53.204;6.568;2023-03-31T06:09:34;10.30;79.80
51801;DHT22;37855;53.204;6.568;2023-03-31T06:12:00;10.30;79.80
51801;DHT22;37855;53.204;6.568;2023-03-31T06:14:26;10.30;79.80
51801;DHT22;37855;53.204;6.568;2023-03-31T06:16:52;10.30;79.80
51801;DHT22;37855;53.204;6.568;2023-03-31T06:19:18;10.30;79.80
51801;DHT22;37855;53.204;6.568;2023-03-31T06:21:44;10.30;79.80
51801;DHT22;37855;53.204;6.568;2023-03-31T06:24:10;10.30;79.70
51801;DHT22;37855;53.204;6.568;2023-03-31T06:26:35;10.30;79.70
51801;DHT22;37855;53.204;6.568;2023-03-31T06:29:01;10.30;79.70
51801;DHT22;37855;53.204;6.568;2023-03-31T06:31:27;10.30;79.70
51801;DHT22;37855;53.204;6.568;2023-03-31T06:33:53;10.30;79.70
51801;DHT22;37855;53.204;6.568;2023-03-31T06:36:30;10.30;79.70
51801;DHT22;37855;53.204;6.568;2023-03-31T06:38:55;10.30;79.70
51801;DHT22;37855;53.204;6.568;2023-03-31T06:41:22;10.40;79.70
51801;DHT22;37855;53.204;6.568;2023-03-31T06:43:50;10.40;79.70
51801;DHT22;37855;53.204;6.568;2023-03-31T06:46:19;10.40;79.70
51801;DHT22;37855;53.204;6.568;2023-03-31T06:48:45;10.40;79.70
51801;DHT22;37855;53.204;6.568;2023-03-31T06:51:11;10.40;79.70
51801;DHT22;37855;53.204;6.568;2023-03-31T06:53:40;10.40;79.70
51801;DHT22;37855;53.204;6.568;2023-03-31T06:56:06;10.40;79.80
51801;DHT22;37855;53.204;6.568;2023-03-31T06:58:32;10.40;79.70
51801;DHT22;37855;53.204;6.568;2023-03-31T07:00:59;10.40;79.70
51801;DHT22;37855;53.204;6.568;2023-03-31T07:03:27;10.40;79.70
51801;DHT22;37855;53.204;6.568;2023-03-31T07:06:02;10.40;79.60
51801;DHT22;37855;53.204;6.568;2023-03-31T07:08:27;10.40;79.70
51801;DHT22;37855;53.204;6.568;2023-03-31T07:11:04;10.40;79.70
51801;DHT22;37855;53.204;6.568;2023-03-31T07:13:32;10.40;79.60
51801;DHT22;37855;53.204;6.568;2023-03-31T07:16:01;10.50;79.70
51801;DHT22;37855;53.204;6.568;2023-03-31T07:21:04;10.40;79.60
51801;DHT22;37855;53.204;6.568;2023-03-31T07:23:32;10.40;79.60
51801;DHT22;37855;53.204;6.568;2023-03-31T07:25:58;10.40;79.60
51801;DHT22;37855;53.204;6.568;2023-03-31T07:28:31;10.40;79.70
51801;DHT22;37855;53.204;6.568;2023-03-31T07:30:57;10.50;79.60
51801;DHT22;37855;53.204;6.568;2023-03-31T07:33:24;10.50;79.60
51801;DHT22;37855;53.204;6.568;2023-03-31T07:35:50;10.50;79.60
51801;DHT22;37855;53.204;6.568;2023-03-31T07:38:16;10.50;79.70
51801;DHT22;37855;53.204;6.568;2023-03-31T07:40:43;10.50;79.60
51801;DHT22;37855;53.204;6.568;2023-03-31T07:43:11;10.50;79.60
51801;DHT22;37855;53.204;6.568;2023-03-31T07:45:38;10.60;79.60
51801;DHT22;37855;53.204;6.568;2023-03-31T07:48:04;10.60;79.60
51801;DHT22;37855;53.204;6.568;2023-03-31T07:50:30;10.60;79.60
51801;DHT22;37855;53.204;6.568;2023-03-31T07:52:56;10.60;79.70
51801;DHT22;37855;53.204;6.568;2023-03-31T07:55:22;10.60;79.60
51801;DHT22;37855;53.204;6.568;2023-03-31T07:57:51;10.60;79.60
51801;DHT22;37855;53.204;6.568;2023-03-31T08:00:20;10.60;79.60
51801;DHT22;37855;53.204;6.568;2023-03-31T08:02:46;10.60;79.60
51801;DHT22;37855;53.204;6.568;2023-03-31T08:25:42;10.60;79.60
51801;DHT22;37855;53.204;6.568;2023-03-31T08:28:52;10.60;79.60
51801;DHT22;37855;53.204;6.568;2023-03-31T08:31:46;10.50;79.60
51801;DHT22;37855;53.204;6.568;2023-03-31T08:34:27;10.50;79.40
51801;DHT22;37855;53.204;6.568;2023-03-31T08:36:55;10.50;79.60
51801;DHT22;37855;53.204;6.568;2023-03-31T08:39:38;10.50;79.50
51801;DHT22;37855;53.204;6.568;2023-03-31T08:42:19;10.50;79.50
51801;DHT22;37855;53.204;6.568;2023-03-31T08:48:41;10.50;79.60
51801;DHT22;37855;53.204;6.568;2023-03-31T08:51:15;10.50;79.50
51801;DHT22;37855;53.204;6.568;2023-03-31T08:54:05;10.50;79.60
51801;DHT22;37855;53.204;6.568;2023-03-31T08:56:34;10.50;79.60
51801;DHT22;37855;53.204;6.568;2023-03-31T08:59:05;10.50;79.60
51801;DHT22;37855;53.204;6.568;2023-03-31T09:01:52;10.60;79.60
51801;DHT22;37855;53.204;6.568;2023-03-31T09:05:09;10.60;79.70
51801;DHT22;37855;53.204;6.568;2023-03-31T09:07:27;10.60;79.70
51801;DHT22;37855;53.204;6.568;2023-03-31T09:10:21;10.70;79.70
51801;DHT22;37855;53.204;6.568;2023-03-31T09:18:32;10.70;79.70
51801;DHT22;37855;53.204;6.568;2023-03-31T09:31:37;10.90;79.70
51801;DHT22;37855;53.204;6.568;2023-03-31T09:52:50;11.10;79.60
51801;DHT22;37855;53.204;6.568;2023-03-31T09:55:24;11.20;79.60
51801;DHT22;37855;53.204;6.568;2023-03-31T09:57:51;11.20;79.60
51801;DHT22;37855;53.204;6.568;2023-03-31T10:00:20;11.30;79.80
51801;DHT22;37855;53.204;6.568;2023-03-31T10:05:54;11.40;79.60
51801;DHT22;37855;53.204;6.568;2023-03-31T10:08:33;11.50;79.50
51801;DHT22;37855;53.204;6.568;2023-03-31T10:13:45;11.60;79.30
51801;DHT22;37855;53.204;6.568;2023-03-31T10:16:22;11.70;79.20
51801;DHT22;37855;53.204;6.568;2023-03-31T10:18:51;11.80;79.20
51801;DHT22;37855;53.204;6.568;2023-03-31T10:21:26;11.80;79.20
51801;DHT22;37855;53.204;6.568;2023-03-31T10:23:59;11.90;79.10
51801;DHT22;37855;53.204;6.568;2023-03-31T10:29:01;11.90;78.90
51801;DHT22;37855;53.204;6.568;2023-03-31T10:32:26;12.00;78.80
51801;DHT22;37855;53.204;6.568;2023-03-31T10:34:54;12.00;78.70
51801;DHT22;37855;53.204;6.568;2023-03-31T10:40:28;11.90;78.70
51801;DHT22;37855;53.204;6.568;2023-03-31T10:43:24;11.90;78.50
51801;DHT22;37855;53.204;6.568;2023-03-31T10:45:55;11.80;78.70
51801;DHT22;37855;53.204;6.568;2023-03-31T10:48:29;11.80;78.70
51801;DHT22;37855;53.204;6.568;2023-03-31T10:51:17;11.80;78.90
51801;DHT22;37855;53.204;6.568;2023-03-31T10:53:48;11.80;78.90
51801;DHT22;37855;53.204;6.568;2023-03-31T11:05:11;12.00;78.80
51801;DHT22;37855;53.204;6.568;2023-03-31T11:13:50;12.20;78.50
51801;DHT22;37855;53.204;6.568;2023-03-31T11:16:39;12.20;78.30
51801;DHT22;37855;53.204;6.568;2023-03-31T11:19:29;12.30;78.30
51801;DHT22;37855;53.204;6.568;2023-03-31T11:22:14;12.40;78.10
51801;DHT22;37855;53.204;6.568;2023-03-31T11:30:41;12.70;77.70
51801;DHT22;37855;53.204;6.568;2023-03-31T11:33:34;12.80;77.60
51801;DHT22;37855;53.204;6.568;2023-03-31T11:36:21;12.90;77.20
51801;DHT22;37855;53.204;6.568;2023-03-31T11:39:21;13.00;77.20
51801;DHT22;37855;53.204;6.568;2023-03-31T11:41:51;13.20;76.80
51801;DHT22;37855;53.204;6.568;2023-03-31T11:44:21;13.30;76.70
51801;DHT22;37855;53.204;6.568;2023-03-31T11:47:12;13.40;76.60
51801;DHT22;37855;53.204;6.568;2023-03-31T11:55:14;13.50;74.60
51801;DHT22;37855;53.204;6.568;2023-03-31T11:57:49;13.50;74.50
51801;DHT22;37855;53.204;6.568;2023-03-31T12:00:34;13.50;74.50
51801;DHT22;37855;53.204;6.568;2023-03-31T12:06:00;13.50;74.30
51801;DHT22;37855;53.204;6.568;2023-03-31T12:08:40;13.40;74.30
51801;DHT22;37855;53.204;6.568;2023-03-31T12:11:26;13.30;74.60
51801;DHT22;37855;53.204;6.568;2023-03-31T12:14:03;13.20;74.80
51801;DHT22;37855;53.204;6.568;2023-03-31T12:31:17;12.90;76.40
51801;DHT22;37855;53.204;6.568;2023-03-31T12:36:40;12.80;76.70
51801;DHT22;37855;53.204;6.568;2023-03-31T12:45:00;12.80;77.10
51801;DHT22;37855;53.204;6.568;2023-03-31T12:50:31;12.90;76.80
51801;DHT22;37855;53.204;6.568;2023-03-31T12:53:14;12.90;77.00
51801;DHT22;37855;53.204;6.568;2023-03-31T12:55:47;13.00;76.80
51801;DHT22;37855;53.204;6.568;2023-03-31T13:01:24;13.40;76.40
51801;DHT22;37855;53.204;6.568;2023-03-31T13:04:20;13.50;76.20
51801;DHT22;37855;53.204;6.568;2023-03-31T13:06:54;13.70;76.00
51801;DHT22;37855;53.204;6.568;2023-03-31T13:12:29;13.80;75.30
51801;DHT22;37855;53.204;6.568;2023-03-31T13:15:03;13.80;75.30
51801;DHT22;37855;53.204;6.568;2023-03-31T13:17:36;13.90;75.10
51801;DHT22;37855;53.204;6.568;2023-03-31T13:20:34;13.90;75.10
51801;DHT22;37855;53.204;6.568;2023-03-31T13:23:16;13.90;74.70
51801;DHT22;37855;53.204;6.568;2023-03-31T13:25:48;14.00;74.80
51801;DHT22;37855;53.204;6.568;2023-03-31T13:33:55;14.20;74.40
51801;DHT22;37855;53.204;6.568;2023-03-31T13:47:57;14.10;74.00
51801;DHT22;37855;53.204;6.568;2023-03-31T13:53:16;13.80;72.90
51801;DHT22;37855;53.204;6.568;2023-03-31T14:01:30;13.50;74.40
51801;DHT22;37855;53.204;6.568;2023-03-31T14:06:56;13.30;74.00
51801;DHT22;37855;53.204;6.568;2023-03-31T14:09:30;13.20;73.00
51801;DHT22;37855;53.204;6.568;2023-03-31T14:12:17;13.10;73.80
51801;DHT22;37855;53.204;6.568;2023-03-31T14:14:46;13.00;73.90
51801;DHT22;37855;53.204;6.568;2023-03-31T14:17:12;13.00;74.00
51801;DHT22;37855;53.204;6.568;2023-03-31T14:20:20;13.20;74.10
51801;DHT22;37855;53.204;6.568;2023-03-31T14:26:29;13.30;73.80
51801;DHT22;37855;53.204;6.568;2023-03-31T14:29:10;13.30;73.50
51801;DHT22;37855;53.204;6.568;2023-03-31T14:31:56;13.30;73.40
51801;DHT22;37855;53.204;6.568;2023-03-31T14:34:46;13.30;73.50
51801;DHT22;37855;53.204;6.568;2023-03-31T14:37:15;13.30;73.40
51801;DHT22;37855;53.204;6.568;2023-03-31T14:39:50;13.30;73.30
51801;DHT22;37855;53.204;6.568;2023-03-31T14:42:24;13.30;73.50
51801;DHT22;37855;53.204;6.568;2023-03-31T14:45:20;13.40;73.60
51801;DHT22;37855;53.204;6.568;2023-03-31T14:47:56;13.50;73.70
51801;DHT22;37855;53.204;6.568;2023-03-31T14:50:28;13.70;73.60
51801;DHT22;37855;53.204;6.568;2023-03-31T14:52:55;13.80;73.60
51801;DHT22;37855;53.204;6.568;2023-03-31T14:55:23;14.00;73.60
51801;DHT22;37855;53.204;6.568;2023-03-31T14:57:51;14.10;73.40
51801;DHT22;37855;53.204;6.568;2023-03-31T15:00:25;14.20;73.40
51801;DHT22;37855;53.204;6.568;2023-03-31T15:02:54;14.20;72.80
51801;DHT22;37855;53.204;6.568;2023-03-31T15:05:35;14.20;72.70
51801;DHT22;37855;53.204;6.568;2023-03-31T15:08:07;14.20;72.50
51801;DHT22;37855;53.204;6.568;2023-03-31T15:10:44;14.10;72.20
51801;DHT22;37855;53.204;6.568;2023-03-31T15:13:37;14.10;72.10
51801;DHT22;37855;53.204;6.568;2023-03-31T15:16:39;14.10;71.90
51801;DHT22;37855;53.204;6.568;2023-03-31T15:19:32;14.10;71.80
51801;DHT22;37855;53.204;6.568;2023-03-31T15:22:01;13.90;68.80
51801;DHT22;37855;53.204;6.568;2023-03-31T15:27:35;13.70;70.50
51801;DHT22;37855;53.204;6.568;2023-03-31T15:30:07;13.70;70.70
51801;DHT22;37855;53.204;6.568;2023-03-31T15:32:37;13.70;70.60
51801;DHT22;37855;53.204;6.568;2023-03-31T15:35:05;13.60;70.70
51801;DHT22;37855;53.204;6.568;2023-03-31T15:37:39;13.60;70.60
51801;DHT22;37855;53.204;6.568;2023-03-31T15:40:27;13.60;70.80
51801;DHT22;37855;53.204;6.568;2023-03-31T15:43:06;13.50;71.00
51801;DHT22;37855;53.204;6.568;2023-03-31T15:45:36;13.50;71.40
51801;DHT22;37855;53.204;6.568;2023-03-31T15:48:18;13.50;71.70
51801;DHT22;37855;53.204;6.568;2023-03-31T15:50:44;13.50;71.70
51801;DHT22;37855;53.204;6.568;2023-03-31T15:53:30;13.40;71.90
51801;DHT22;37855;53.204;6.568;2023-03-31T15:55:59;13.40;72.10
51801;DHT22;37855;53.204;6.568;2023-03-31T15:58:59;13.30;72.20
51801;DHT22;37855;53.204;6.568;2023-03-31T16:01:32;13.30;71.40
51801;DHT22;37855;53.204;6.568;2023-03-31T16:04:13;13.20;72.00
51801;DHT22;37855;53.204;6.568;2023-03-31T16:07:21;13.20;72.20
51801;DHT22;37855;53.204;6.568;2023-03-31T16:09:58;13.20;72.50
51801;DHT22;37855;53.204;6.568;2023-03-31T16:12:36;13.10;72.60
51801;DHT22;37855;53.204;6.568;2023-03-31T16:15:05;13.10;72.70
51801;DHT22;37855;53.204;6.568;2023-03-31T16:18:12;13.20;72.80
51801;DHT22;37855;53.204;6.568;2023-03-31T16:20:41;13.20;72.80
51801;DHT22;37855;53.204;6.568;2023-03-31T16:23:18;13.10;72.80
51801;DHT22;37855;53.204;6.568;2023-03-31T16:25:45;13.10;72.70
51801;DHT22;37855;53.204;6.568;2023-03-31T16:30:48;13.10;72.70
51801;DHT22;37855;53.204;6.568;2023-03-31T16:33:16;13.10;72.80
51801;DHT22;37855;53.204;6.568;2023-03-31T16:35:48;13.10;72.80
51801;DHT22;37855;53.204;6.568;2023-03-31T16:38:16;13.10;72.90
51801;DHT22;37855;53.204;6.568;2023-03-31T16:40:56;13.10;73.00
51801;DHT22;37855;53.204;6.568;2023-03-31T16:43:29;13.10;73.10
51801;DHT22;37855;53.204;6.568;2023-03-31T16:45:57;13.10;73.10
51801;DHT22;37855;53.204;6.568;2023-03-31T16:48:25;13.10;73.20
51801;DHT22;37855;53.204;6.568;2023-03-31T16:50:53;13.10;73.30
51801;DHT22;37855;53.204;6.568;2023-03-31T16:53:26;13.10;73.50
51801;DHT22;37855;53.204;6.568;2023-03-31T16:55:54;13.00;73.60
51801;DHT22;37855;53.204;6.568;2023-03-31T16:58:21;13.00;73.70
51801;DHT22;37855;53.204;6.568;2023-03-31T17:01:08;13.00;73.80
51801;DHT22;37855;53.204;6.568;2023-03-31T17:03:34;12.90;74.10
51801;DHT22;37855;53.204;6.568;2023-03-31T17:06:08;12.90;74.30
51801;DHT22;37855;53.204;6.568;2023-03-31T17:08:37;12.90;74.50
51801;DHT22;37855;53.204;6.568;2023-03-31T17:11:07;12.80;74.70
51801;DHT22;37855;53.204;6.568;2023-03-31T17:13:36;12.80;74.90
51801;DHT22;37855;53.204;6.568;2023-03-31T17:16:02;12.80;75.10
51801;DHT22;37855;53.204;6.568;2023-03-31T17:18:36;12.80;75.10
51801;DHT22;37855;53.204;6.568;2023-03-31T17:21:07;12.70;75.40
51801;DHT22;37855;53.204;6.568;2023-03-31T17:23:35;12.70;75.40
51801;DHT22;37855;53.204;6.568;2023-03-31T17:26:01;12.60;75.50
51801;DHT22;37855;53.204;6.568;2023-03-31T17:28:27;12.60;75.50
51801;DHT22;37855;53.204;6.568;2023-03-31T17:30:53;12.50;75.70
51801;DHT22;37855;53.204;6.568;2023-03-31T17:33:19;12.40;75.70
51801;DHT22;37855;53.204;6.568;2023-03-31T17:35:45;12.40;75.90
51801;DHT22;37855;53.204;6.568;2023-03-31T17:38:11;12.30;76.00
51801;DHT22;37855;53.204;6.568;2023-03-31T17:40:39;12.30;76.10
51801;DHT22;37855;53.204;6.568;2023-03-31T17:43:05;12.30;76.20
51801;DHT22;37855;53.204;6.568;2023-03-31T17:45:36;12.20;76.30
51801;DHT22;37855;53.204;6.568;2023-03-31T17:48:02;12.20;76.40
51801;DHT22;37855;53.204;6.568;2023-03-31T17:50:30;12.20;76.60
51801;DHT22;37855;53.204;6.568;2023-03-31T17:52:57;12.20;76.60
51801;DHT22;37855;53.204;6.568;2023-03-31T17:55:23;12.10;76.70
51801;DHT22;37855;53.204;6.568;2023-03-31T17:57:50;12.10;76.80
51801;DHT22;37855;53.204;6.568;2023-03-31T18:00:19;12.10;76.80
51801;DHT22;37855;53.204;6.568;2023-03-31T18:02:45;12.10;76.90
51801;DHT22;37855;53.204;6.568;2023-03-31T18:05:11;12.10;77.00
51801;DHT22;37855;53.204;6.568;2023-03-31T18:07:37;12.10;77.20
51801;DHT22;37855;53.204;6.568;2023-03-31T18:10:05;12.00;77.10
51801;DHT22;37855;53.204;6.568;2023-03-31T18:12:32;12.00;77.20
51801;DHT22;37855;53.204;6.568;2023-03-31T18:14:58;12.00;77.30
51801;DHT22;37855;53.204;6.568;2023-03-31T18:17:24;12.00;77.10
51801;DHT22;37855;53.204;6.568;2023-03-31T18:19:50;12.00;77.20
51801;DHT22;37855;53.204;6.568;2023-03-31T18:22:16;12.00;77.20
51801;DHT22;37855;53.204;6.568;2023-03-31T18:24:43;12.00;77.20
51801;DHT22;37855;53.204;6.568;2023-03-31T18:27:08;12.00;77.20
51801;DHT22;37855;53.204;6.568;2023-03-31T18:29:35;11.90;77.10
51801;DHT22;37855;53.204;6.568;2023-03-31T18:32:03;11.90;77.10
51801;DHT22;37855;53.204;6.568;2023-03-31T18:34:32;11.90;77.10
51801;DHT22;37855;53.204;6.568;2023-03-31T18:37:02;11.90;77.20
51801;DHT22;37855;53.204;6.568;2023-03-31T18:39:34;11.90;77.20
51801;DHT22;37855;53.204;6.568;2023-03-31T18:42:02;11.90;77.30
51801;DHT22;37855;53.204;6.568;2023-03-31T18:44:29;11.80;77.40
51801;DHT22;37855;53.204;6.568;2023-03-31T18:46:55;11.80;77.30
51801;DHT22;37855;53.204;6.568;2023-03-31T18:49:21;11.80;77.40
51801;DHT22;37855;53.204;6.568;2023-03-31T18:51:47;11.80;77.50
51801;DHT22;37855;53.204;6.568;2023-03-31T18:54:12;11.70;77.70
51801;DHT22;37855;53.204;6.568;2023-03-31T18:56:38;11.70;77.80
51801;DHT22;37855;53.204;6.568;2023-03-31T18:59:04;11.70;77.90
51801;DHT22;37855;53.204;6.568;2023-03-31T19:01:30;11.70;78.00
51801;DHT22;37855;53.204;6.568;2023-03-31T19:03:57;11.70;78.00
51801;DHT22;37855;53.204;6.568;2023-03-31T19:06:23;11.70;78.10
51801;DHT22;37855;53.204;6.568;2023-03-31T19:08:48;11.70;78.10
51801;DHT22;37855;53.204;6.568;2023-03-31T19:11:15;11.70;78.20
51801;DHT22;37855;53.204;6.568;2023-03-31T19:13:42;11.70;78.20
51801;DHT22;37855;53.204;6.568;2023-03-31T19:16:09;11.70;78.20
51801;DHT22;37855;53.204;6.568;2023-03-31T19:18:36;11.60;78.80
51801;DHT22;37855;53.204;6.568;2023-03-31T19:21:03;11.50;79.10
51801;DHT22;37855;53.204;6.568;2023-03-31T19:23:29;11.40;79.30
51801;DHT22;37855;53.204;6.568;2023-03-31T19:25:58;11.40;79.10
51801;DHT22;37855;53.204;6.568;2023-03-31T19:28:25;11.30;78.90
51801;DHT22;37855;53.204;6.568;2023-03-31T19:30:54;11.40;78.90
51801;DHT22;37855;53.204;6.568;2023-03-31T19:33:21;11.40;78.90
51801;DHT22;37855;53.204;6.568;2023-03-31T19:35:47;11.40;79.00
51801;DHT22;37855;53.204;6.568;2023-03-31T19:38:14;11.50;79.00
51801;DHT22;37855;53.204;6.568;2023-03-31T19:40:40;11.50;79.00